Terminal Aerodrome Forecast
Issued by NWS Chicago, IL

Home | Current Version | Previous Version | Graphics & Text | Print | Product List | Glossary On
Versions: 1 2 3 4 5 6 7 8 9 10 11 12 13 14 15 16 17 18 19 20 21 22 23 24 25
777
FTUS43 KLOT 222339
TAFRFD
TAF
KRFD 222339Z 2300/2324 21015G22KT P6SM FEW030 SCT050 BKN250
     FM230200 20012KT P6SM SCT025 BKN050 BKN250
     FM230500 22012KT P6SM -SHRA SCT010 BKN020 BKN050
      TEMPO 2305/2308 4SM -TSRA BKN015CB BKN050
     FM230900 36011KT P6SM BKN015 BKN050
     FM231200 35010KT P6SM SCT020 BKN035
     FM231600 32011G18KT P6SM SCT035 BKN200=

USA.gov is the U.S. government's official web portal to all federal, state and local government web resources and services.